Time;durP1;ratioP1;P1;durP2;ratioP2;P2;SDS_P1;SDS_P2;PMS_P1;PMS_P2;Temp;Humidity;BMP_temperature;BMP_pressure;BME280_temperature;BME280_humidity;BME280_pressure;Samples;Min_cycle;Max_cycle;Signal;HPM_P1;HPM_P2
2021/03/01 00:02:08;;;;;;;;;;;-0.40;99.90;;;;;;5078510;28;19909;-75
2021/03/01 00:04:33;;;;;;;;;;;-0.40;99.90;;;;;;5077455;28;19923;-77
2021/03/01 00:06:59;;;;;;;;;;;-0.40;99.90;;;;;;5076625;28;20016;-77
2021/03/01 00:09:24;;;;;;;;;;;-0.40;99.90;;;;;;5078664;28;19908;-75
2021/03/01 00:11:50;;;;;;;;;;;-0.40;99.90;;;;;;5079967;28;19991;-77
2021/03/01 00:14:15;;;;;;;;;;;-0.30;99.90;;;;;;5081751;28;19908;-77
2021/03/01 00:16:41;;;;;;;;;;;-0.30;99.90;;;;;;5080987;28;19908;-77
2021/03/01 00:19:06;;;;;;;;;;;-0.40;99.90;;;;;;5080948;28;19931;-74
2021/03/01 00:21:32;;;;;;;;;;;-0.40;99.90;;;;;;5081210;28;19908;-77
2021/03/01 00:23:57;;;;;;;;;;;-0.40;99.90;;;;;;5080737;28;19930;-77
2021/03/01 00:26:22;;;;;;;;;;;-0.50;99.90;;;;;;5081261;28;20277;-73
2021/03/01 00:28:48;;;;;;;;;;;-0.60;99.90;;;;;;5075218;28;19916;-77
2021/03/01 00:31:13;;;;;;;;;;;-0.60;99.90;;;;;;5080328;28;20377;-75
2021/03/01 00:33:39;;;;;;;;;;;-0.70;99.90;;;;;;5080001;28;19917;-76
2021/03/01 00:36:04;;;;;;;;;;;-0.70;99.90;;;;;;5080909;28;19924;-75
2021/03/01 00:38:30;;;;;;;;;;;-0.70;99.90;;;;;;5080208;28;19963;-77
2021/03/01 00:40:55;;;;;;;;;;;-0.70;99.90;;;;;;5094153;28;19912;-77
2021/03/01 00:43:21;;;;;;;;;;;-0.70;99.90;;;;;;5088668;28;19959;-74
2021/03/01 00:45:46;;;;;;;;;;;-0.70;99.90;;;;;;5080252;28;19935;-77
2021/03/01 00:48:12;;;;;;;;;;;-0.60;99.90;;;;;;5066222;28;20468;-77
2021/03/01 00:50:38;;;;;;;;;;;-0.60;99.90;;;;;;5078082;28;20288;-75
2021/03/01 00:53:03;;;;;;;;;;;-0.60;99.90;;;;;;5071257;28;19984;-73
2021/03/01 00:55:28;;;;;;;;;;;-0.70;99.90;;;;;;5057916;28;19912;-76
2021/03/01 00:57:54;;;;;;;;;;;-0.70;99.90;;;;;;5055568;28;19958;-76
2021/03/01 01:00:20;;;;;;;;;;;-0.80;99.90;;;;;;5055864;28;19913;-77
2021/03/01 01:02:45;;;;;;;;;;;-0.80;99.90;;;;;;5056861;28;20344;-76
2021/03/01 01:05:11;;;;;;;;;;;-0.80;99.90;;;;;;5057799;28;19909;-76
2021/03/01 01:07:37;;;;;;;;;;;-0.80;99.90;;;;;;5057921;28;20198;-75
2021/03/01 01:10:06;;;;;;;;;;;-0.90;99.90;;;;;;5065294;28;19909;-75
2021/03/01 01:12:33;;;;;;;;;;;-0.90;99.90;;;;;;5078839;28;19912;-77
2021/03/01 01:14:58;;;;;;;;;;;-1.00;99.90;;;;;;5079859;28;19909;-77
2021/03/01 01:17:24;;;;;;;;;;;-1.00;99.90;;;;;;5079218;28;19946;-76
2021/03/01 01:19:49;;;;;;;;;;;-1.00;99.90;;;;;;5078068;28;19909;-74
2021/03/01 01:22:15;;;;;;;;;;;-1.00;99.90;;;;;;5077479;28;19974;-77
2021/03/01 01:24:40;;;;;;;;;;;-1.00;99.90;;;;;;5078813;28;19912;-76
2021/03/01 01:27:06;;;;;;;;;;;-1.00;99.90;;;;;;5078777;28;19923;-75
2021/03/01 01:29:31;;;;;;;;;;;-1.00;99.90;;;;;;5077980;28;19916;-77
2021/03/01 01:31:57;;;;;;;;;;;-1.00;99.90;;;;;;5077685;28;20272;-76
2021/03/01 01:34:22;;;;;;;;;;;-1.10;99.90;;;;;;5079227;28;19923;-77
2021/03/01 01:36:48;;;;;;;;;;;-1.20;99.90;;;;;;5078302;28;19909;-76
2021/03/01 01:39:13;;;;;;;;;;;-1.20;99.90;;;;;;5078300;28;20387;-76
2021/03/01 01:41:38;;;;;;;;;;;-1.20;99.90;;;;;;5077216;28;19944;-76
2021/03/01 01:44:04;;;;;;;;;;;-1.20;99.90;;;;;;5078345;28;19916;-73
2021/03/01 01:46:30;;;;;;;;;;;-1.30;99.90;;;;;;5076534;28;20396;-76
2021/03/01 01:48:55;;;;;;;;;;;-1.30;99.90;;;;;;5078434;28;19915;-77
2021/03/01 01:51:20;;;;;;;;;;;-1.30;99.90;;;;;;5077610;28;20418;-77
2021/03/01 01:53:46;;;;;;;;;;;-1.30;99.90;;;;;;5078056;28;19919;-77
2021/03/01 01:56:12;;;;;;;;;;;-1.30;99.90;;;;;;5075473;28;19961;-76
2021/03/01 01:58:37;;;;;;;;;;;-1.30;99.90;;;;;;5075664;28;19908;-76
2021/03/01 02:01:04;;;;;;;;;;;-1.30;99.90;;;;;;5077008;28;19947;-77
2021/03/01 02:03:29;;;;;;;;;;;-1.40;99.90;;;;;;5075400;28;19908;-76
2021/03/01 02:05:55;;;;;;;;;;;-1.40;99.90;;;;;;5075186;28;19919;-73
2021/03/01 02:08:30;;;;;;;;;;;-1.40;99.90;;;;;;5076820;28;19909;-73
2021/03/01 02:11:08;;;;;;;;;;;-1.40;99.90;;;;;;5073739;28;19915;-77
2021/03/01 02:13:36;;;;;;;;;;;-1.40;99.90;;;;;;5076834;28;20360;-76
2021/03/01 02:16:04;;;;;;;;;;;-1.40;99.90;;;;;;5074836;28;19915;-76
2021/03/01 02:18:30;;;;;;;;;;;-1.40;99.90;;;;;;5075218;28;19908;-77
2021/03/01 02:21:06;;;;;;;;;;;-1.50;99.90;;;;;;5076270;28;20419;-76
2021/03/01 02:23:31;;;;;;;;;;;-1.60;99.90;;;;;;5076974;28;19913;-75
2021/03/01 02:25:59;;;;;;;;;;;-1.60;99.90;;;;;;5076248;28;19966;-77
2021/03/01 02:28:27;;;;;;;;;;;-1.60;99.90;;;;;;5074679;28;19908;-77
2021/03/01 02:30:56;;;;;;;;;;;-1.50;99.90;;;;;;5076329;28;20073;-76
2021/03/01 02:33:23;;;;;;;;;;;-1.50;99.90;;;;;;5075764;28;19927;-75
2021/03/01 02:36:12;;;;;;;;;;;-1.50;99.90;;;;;;5074505;28;20309;-77
2021/03/01 02:38:39;;;;;;;;;;;-1.50;99.90;;;;;;5066408;28;19916;-75
2021/03/01 02:41:05;;;;;;;;;;;-1.60;99.90;;;;;;5083254;28;19943;-77
2021/03/01 02:43:31;;;;;;;;;;;-1.70;99.90;;;;;;5096829;28;19912;-76
2021/03/01 02:45:58;;;;;;;;;;;-1.70;99.90;;;;;;5095173;28;19919;-77
2021/03/01 02:48:24;;;;;;;;;;;-1.70;99.90;;;;;;5096508;28;20123;-77
2021/03/01 02:50:51;;;;;;;;;;;-1.80;99.90;;;;;;5095228;28;20163;-77
2021/03/01 02:53:17;;;;;;;;;;;-1.80;99.90;;;;;;5094359;28;19908;-76
2021/03/01 02:55:44;;;;;;;;;;;-1.80;99.90;;;;;;5094617;28;19908;-76
2021/03/01 02:58:11;;;;;;;;;;;-1.90;99.90;;;;;;5096045;28;19908;-73
2021/03/01 03:00:38;;;;;;;;;;;-1.90;99.90;;;;;;5095363;28;19915;-75
2021/03/01 03:03:04;;;;;;;;;;;-1.90;99.90;;;;;;5094771;28;19908;-77
2021/03/01 03:05:31;;;;;;;;;;;-1.90;99.90;;;;;;5096879;28;20113;-74
2021/03/01 03:07:57;;;;;;;;;;;-2.00;99.90;;;;;;5095803;28;19915;-72
2021/03/01 03:10:23;;;;;;;;;;;-2.00;99.90;;;;;;5082027;28;20369;-76
2021/03/01 03:12:49;;;;;;;;;;;-2.00;99.90;;;;;;5074356;28;19915;-76
2021/03/01 03:15:20;;;;;;;;;;;-2.00;99.90;;;;;;5075740;28;19916;-74
2021/03/01 03:17:46;;;;;;;;;;;-2.00;99.90;;;;;;5075368;28;19908;-77
2021/03/01 03:20:12;;;;;;;;;;;-1.90;99.90;;;;;;5075580;28;19908;-76
2021/03/01 03:22:38;;;;;;;;;;;-2.00;99.90;;;;;;5075977;28;19908;-77
2021/03/01 03:25:04;;;;;;;;;;;-2.00;99.90;;;;;;5075306;28;19999;-75
2021/03/01 03:27:30;;;;;;;;;;;-2.00;99.90;;;;;;5074272;28;19923;-77
2021/03/01 03:29:55;;;;;;;;;;;-2.00;99.90;;;;;;5075605;28;20374;-76
2021/03/01 03:32:21;;;;;;;;;;;-2.00;99.90;;;;;;5075542;28;20003;-74
2021/03/01 03:34:46;;;;;;;;;;;-2.10;99.90;;;;;;5074584;28;20019;-74
2021/03/01 03:37:15;;;;;;;;;;;-2.10;99.90;;;;;;5075548;28;19987;-76
2021/03/01 03:39:45;;;;;;;;;;;-2.10;99.90;;;;;;5076288;28;20187;-77
2021/03/01 03:42:13;;;;;;;;;;;-2.10;99.90;;;;;;5073744;28;20401;-74
2021/03/01 03:44:39;;;;;;;;;;;-2.10;99.90;;;;;;5075355;28;19916;-76
2021/03/01 03:47:06;;;;;;;;;;;-2.10;99.90;;;;;;5075596;28;19912;-72
2021/03/01 03:49:32;;;;;;;;;;;-2.10;99.90;;;;;;5076126;28;19916;-75
2021/03/01 03:51:59;;;;;;;;;;;-2.10;99.90;;;;;;5074816;28;19908;-76
2021/03/01 03:54:27;;;;;;;;;;;-2.10;99.90;;;;;;5075689;28;19998;-77
2021/03/01 03:56:54;;;;;;;;;;;-2.10;99.90;;;;;;5074274;28;20032;-76
2021/03/01 03:59:20;;;;;;;;;;;-2.10;99.90;;;;;;5074918;28;19909;-73
2021/03/01 04:01:48;;;;;;;;;;;-2.00;99.90;;;;;;5074905;28;19975;-76
2021/03/01 04:04:14;;;;;;;;;;;-2.10;99.90;;;;;;5074635;28;19908;-76
2021/03/01 04:06:42;;;;;;;;;;;-2.10;99.90;;;;;;5073433;28;20362;-75
2021/03/01 04:09:08;;;;;;;;;;;-2.10;99.90;;;;;;5073426;28;19927;-74
2021/03/01 04:11:35;;;;;;;;;;;-2.20;99.90;;;;;;5074479;28;19923;-76
2021/03/01 04:14:00;;;;;;;;;;;-2.20;99.90;;;;;;5073305;28;19920;-76
2021/03/01 04:16:27;;;;;;;;;;;-2.30;99.90;;;;;;5074026;28;19908;-75
2021/03/01 04:18:54;;;;;;;;;;;-2.30;99.90;;;;;;5073208;28;19908;-76
2021/03/01 04:21:20;;;;;;;;;;;-2.30;99.90;;;;;;5073883;28;19916;-76
2021/03/01 04:23:48;;;;;;;;;;;-2.40;99.90;;;;;;5075693;28;19919;-74
2021/03/01 04:26:13;;;;;;;;;;;-2.40;99.90;;;;;;5075192;28;19913;-77
2021/03/01 04:28:40;;;;;;;;;;;-2.40;99.90;;;;;;5075992;28;20428;-76
2021/03/01 04:31:07;;;;;;;;;;;-2.40;99.90;;;;;;5074106;28;20410;-76
2021/03/01 04:33:34;;;;;;;;;;;-2.40;99.90;;;;;;5073710;28;19916;-76
2021/03/01 04:36:00;;;;;;;;;;;-2.40;99.90;;;;;;5072956;28;20250;-76
2021/03/01 04:38:26;;;;;;;;;;;-2.40;99.90;;;;;;5073313;28;19913;-76
2021/03/01 04:40:52;;;;;;;;;;;-2.40;99.90;;;;;;5071298;28;20383;-74
2021/03/01 04:43:19;;;;;;;;;;;-2.30;99.90;;;;;;5070613;28;19959;-74
2021/03/01 04:45:45;;;;;;;;;;;-2.30;99.90;;;;;;5070602;28;19958;-74
2021/03/01 04:48:10;;;;;;;;;;;-2.40;99.90;;;;;;5070635;28;19920;-74
2021/03/01 04:50:37;;;;;;;;;;;-2.40;99.90;;;;;;5070563;28;19916;-73
2021/03/01 04:53:02;;;;;;;;;;;-2.40;99.90;;;;;;5070689;28;19916;-74
2021/03/01 04:55:28;;;;;;;;;;;-2.40;99.90;;;;;;5072598;28;19916;-74
2021/03/01 04:57:55;;;;;;;;;;;-2.40;99.90;;;;;;5073876;28;20436;-74
2021/03/01 05:00:21;;;;;;;;;;;-2.40;99.90;;;;;;5073852;28;20012;-74
2021/03/01 05:02:47;;;;;;;;;;;-2.40;99.90;;;;;;5074249;28;20011;-74
2021/03/01 05:05:12;;;;;;;;;;;-2.40;99.90;;;;;;5073801;28;19908;-74
2021/03/01 05:07:38;;;;;;;;;;;-2.40;99.90;;;;;;5073748;28;19966;-73
2021/03/01 05:10:05;;;;;;;;;;;-2.40;99.90;;;;;;5073763;28;19966;-74
2021/03/01 05:12:30;;;;;;;;;;;-2.50;99.90;;;;;;5072756;28;20343;-74
2021/03/01 05:14:56;;;;;;;;;;;-2.50;99.90;;;;;;5073998;28;19908;-74
2021/03/01 05:17:21;;;;;;;;;;;-2.50;99.90;;;;;;5073632;28;19909;-74
2021/03/01 05:19:47;;;;;;;;;;;-2.50;99.90;;;;;;5073829;28;20038;-74
2021/03/01 05:22:12;;;;;;;;;;;-2.60;99.90;;;;;;5073692;28;20018;-74
2021/03/01 05:24:38;;;;;;;;;;;-2.60;99.90;;;;;;5073761;28;19931;-74
2021/03/01 05:27:03;;;;;;;;;;;-2.60;99.90;;;;;;5073196;28;20387;-74
2021/03/01 05:29:29;;;;;;;;;;;-2.60;99.90;;;;;;5073459;28;19982;-74
2021/03/01 05:31:54;;;;;;;;;;;-2.60;99.90;;;;;;5074064;28;19961;-74
2021/03/01 05:34:20;;;;;;;;;;;-2.60;99.90;;;;;;5073307;28;19921;-74
2021/03/01 05:36:45;;;;;;;;;;;-2.70;99.90;;;;;;5073189;28;19910;-74
2021/03/01 05:39:11;;;;;;;;;;;-2.70;99.90;;;;;;5073521;28;19908;-74
2021/03/01 05:41:38;;;;;;;;;;;-2.70;99.90;;;;;;5073133;28;20289;-74
2021/03/01 05:44:05;;;;;;;;;;;-2.70;99.90;;;;;;5073271;28;19916;-74
2021/03/01 05:46:32;;;;;;;;;;;-2.80;99.90;;;;;;5072684;28;19923;-74
2021/03/01 05:48:58;;;;;;;;;;;-2.80;99.90;;;;;;5073257;28;20399;-74
2021/03/01 05:51:24;;;;;;;;;;;-2.80;99.90;;;;;;5073311;28;19924;-73
2021/03/01 05:53:50;;;;;;;;;;;-2.90;99.90;;;;;;5072931;28;19908;-73
2021/03/01 05:56:16;;;;;;;;;;;-2.90;99.90;;;;;;5072726;28;20289;-74
2021/03/01 05:58:42;;;;;;;;;;;-2.90;99.90;;;;;;5072760;28;19923;-74
2021/03/01 06:01:08;;;;;;;;;;;-2.90;99.90;;;;;;5073098;28;20015;-73
2021/03/01 06:03:34;;;;;;;;;;;-2.80;99.90;;;;;;5072969;28;19912;-73
2021/03/01 06:05:59;;;;;;;;;;;-2.80;99.90;;;;;;5071992;28;19913;-73
2021/03/01 06:08:25;;;;;;;;;;;-2.80;99.90;;;;;;5073068;28;19915;-74
2021/03/01 06:10:58;;;;;;;;;;;-2.80;99.90;;;;;;5072586;28;19916;-73
2021/03/01 06:13:24;;;;;;;;;;;-2.80;99.90;;;;;;5072623;28;19963;-74
2021/03/01 06:15:51;;;;;;;;;;;-2.90;99.90;;;;;;5072526;28;19909;-73
2021/03/01 06:18:17;;;;;;;;;;;-2.80;99.90;;;;;;5069295;28;19932;-73
2021/03/01 06:20:42;;;;;;;;;;;-2.80;99.90;;;;;;5069359;28;20361;-73
2021/03/01 06:23:08;;;;;;;;;;;-2.90;99.90;;;;;;5072604;28;19916;-73
2021/03/01 06:25:34;;;;;;;;;;;-2.90;99.90;;;;;;5072445;28;19912;-73
2021/03/01 06:28:01;;;;;;;;;;;-2.80;99.90;;;;;;5072300;28;20416;-73
2021/03/01 06:30:29;;;;;;;;;;;-2.80;99.90;;;;;;5072457;28;19916;-73
2021/03/01 06:33:13;;;;;;;;;;;-2.80;99.90;;;;;;5072397;28;19920;-73
2021/03/01 06:35:48;;;;;;;;;;;-2.70;99.90;;;;;;5072164;28;19908;-73
2021/03/01 06:38:18;;;;;;;;;;;-2.80;99.90;;;;;;5071500;28;20311;-73
2021/03/01 06:41:01;;;;;;;;;;;-2.80;99.90;;;;;;5072263;28;19942;-73
2021/03/01 06:43:27;;;;;;;;;;;-2.80;99.90;;;;;;5072211;28;19912;-73
2021/03/01 06:46:04;;;;;;;;;;;-2.80;99.90;;;;;;5071948;28;20370;-73
2021/03/01 06:48:30;;;;;;;;;;;-2.80;99.90;;;;;;5072327;28;20270;-73
2021/03/01 06:50:55;;;;;;;;;;;-2.80;99.90;;;;;;5072289;28;19915;-73
2021/03/01 06:53:21;;;;;;;;;;;-2.70;99.90;;;;;;5072175;28;19912;-73
2021/03/01 06:56:05;;;;;;;;;;;-2.60;99.90;;;;;;5070491;28;19978;-74
2021/03/01 06:58:41;;;;;;;;;;;-2.60;99.90;;;;;;5072015;28;20003;-74
2021/03/01 07:01:08;;;;;;;;;;;-2.50;99.90;;;;;;5072137;28;19908;-74
2021/03/01 07:03:34;;;;;;;;;;;-2.50;99.90;;;;;;5072079;28;19909;-74
2021/03/01 07:06:00;;;;;;;;;;;-2.40;99.90;;;;;;5071398;28;19912;-74
2021/03/01 07:08:46;;;;;;;;;;;-2.40;99.90;;;;;;5071845;28;19913;-74
2021/03/01 07:11:30;;;;;;;;;;;-2.30;99.90;;;;;;5088046;28;20038;-74
2021/03/01 07:13:58;;;;;;;;;;;-2.30;99.90;;;;;;5092045;28;19908;-74
2021/03/01 07:16:24;;;;;;;;;;;-2.20;99.90;;;;;;5077890;28;19908;-74
2021/03/01 07:18:50;;;;;;;;;;;-2.10;99.90;;;;;;5066627;28;19932;-74
2021/03/01 07:21:16;;;;;;;;;;;-2.00;99.90;;;;;;5070411;28;19940;-74
2021/03/01 07:23:46;;;;;;;;;;;-2.00;99.90;;;;;;5070952;28;19991;-74
2021/03/01 07:26:12;;;;;;;;;;;-1.90;99.90;;;;;;5070547;28;19921;-74
2021/03/01 07:28:41;;;;;;;;;;;-1.80;99.90;;;;;;5069853;28;19908;-74
2021/03/01 07:31:07;;;;;;;;;;;-1.80;99.90;;;;;;5070749;28;19909;-74
2021/03/01 07:33:33;;;;;;;;;;;-1.70;99.90;;;;;;5059746;28;19924;-73
2021/03/01 07:35:59;;;;;;;;;;;-1.50;99.90;;;;;;5067598;28;19909;-74
2021/03/01 07:38:25;;;;;;;;;;;-1.40;99.90;;;;;;5069305;28;19917;-74
2021/03/01 07:40:50;;;;;;;;;;;-1.30;99.90;;;;;;5069048;28;19981;-74
2021/03/01 07:43:17;;;;;;;;;;;-1.20;99.90;;;;;;5068618;28;19909;-74
2021/03/01 07:45:44;;;;;;;;;;;-1.10;99.90;;;;;;5068036;28;19912;-74
2021/03/01 07:48:13;;;;;;;;;;;-1.00;99.90;;;;;;5069543;28;19909;-74
2021/03/01 07:50:41;;;;;;;;;;;-0.90;99.90;;;;;;5066989;28;19979;-74
2021/03/01 07:53:06;;;;;;;;;;;-0.80;99.90;;;;;;5064075;28;20398;-74
2021/03/01 07:55:31;;;;;;;;;;;-0.60;99.90;;;;;;5067968;28;19947;-74
2021/03/01 07:58:04;;;;;;;;;;;-0.50;99.90;;;;;;5068628;28;19916;-74
2021/03/01 08:00:34;;;;;;;;;;;-0.40;99.90;;;;;;5062610;28;20258;-74
2021/03/01 08:03:01;;;;;;;;;;;-0.20;99.90;;;;;;5069474;28;19908;-74
2021/03/01 08:05:30;;;;;;;;;;;0.00;99.90;;;;;;5061810;28;19909;-74
2021/03/01 08:07:56;;;;;;;;;;;0.10;99.90;;;;;;5068965;28;19908;-74
2021/03/01 08:10:28;;;;;;;;;;;0.30;99.90;;;;;;5054945;28;19916;-74
2021/03/01 08:12:57;;;;;;;;;;;0.40;99.90;;;;;;5062168;28;19908;-75
2021/03/01 08:15:24;;;;;;;;;;;0.60;99.90;;;;;;5062464;28;20414;-75
2021/03/01 08:17:51;;;;;;;;;;;0.80;99.90;;;;;;5068518;28;20357;-75
2021/03/01 08:20:16;;;;;;;;;;;0.90;99.90;;;;;;5067874;28;19908;-75
2021/03/01 08:23:01;;;;;;;;;;;1.10;99.90;;;;;;5070773;28;20524;-75
2021/03/01 08:25:57;;;;;;;;;;;1.30;99.90;;;;;;5069537;28;20003;-75
2021/03/01 08:28:23;;;;;;;;;;;1.70;99.90;;;;;;5070924;28;19944;-75
2021/03/01 08:30:49;;;;;;;;;;;2.50;99.90;;;;;;5073630;28;19959;-75
2021/03/01 08:33:15;;;;;;;;;;;3.30;99.90;;;;;;5074609;28;20440;-76
2021/03/01 08:35:42;;;;;;;;;;;4.30;99.90;;;;;;5072724;28;19999;-76
2021/03/01 08:38:08;;;;;;;;;;;5.20;99.90;;;;;;5070634;28;19909;-76
2021/03/01 08:40:33;;;;;;;;;;;6.10;99.90;;;;;;5073325;28;19917;-76
2021/03/01 08:43:03;;;;;;;;;;;7.00;99.90;;;;;;5074805;28;19913;-76
2021/03/01 08:45:40;;;;;;;;;;;7.80;99.90;;;;;;5072986;28;19912;-77
2021/03/01 08:48:07;;;;;;;;;;;8.50;99.90;;;;;;5058672;28;20384;-76
2021/03/01 08:50:37;;;;;;;;;;;9.40;99.90;;;;;;5062364;28;20011;-76
2021/03/01 08:53:03;;;;;;;;;;;10.10;98.70;;;;;;5070719;28;19915;-76
2021/03/01 08:55:29;;;;;;;;;;;10.90;96.10;;;;;;5065764;28;19909;-76
2021/03/01 08:58:01;;;;;;;;;;;11.50;94.70;;;;;;5070688;28;19916;-76
2021/03/01 09:00:28;;;;;;;;;;;11.90;94.00;;;;;;5072471;28;20359;-76
2021/03/01 09:03:12;;;;;;;;;;;12.30;92.70;;;;;;5072564;28;20035;-76
2021/03/01 09:05:40;;;;;;;;;;;12.50;92.20;;;;;;5072396;28;19960;-77
2021/03/01 09:08:06;;;;;;;;;;;12.80;91.10;;;;;;5074125;28;19909;-76
2021/03/01 09:10:39;;;;;;;;;;;13.20;89.20;;;;;;5070222;28;20276;-77
2021/03/01 09:13:05;;;;;;;;;;;13.40;89.40;;;;;;5071798;28;19908;-77
2021/03/01 09:15:31;;;;;;;;;;;13.70;87.60;;;;;;5072702;28;19917;-77
2021/03/01 09:17:57;;;;;;;;;;;13.80;85.90;;;;;;5071120;28;20347;-76
2021/03/01 09:20:23;;;;;;;;;;;13.80;86.40;;;;;;5069674;28;19999;-77
2021/03/01 09:22:48;;;;;;;;;;;14.10;83.70;;;;;;5071634;28;19939;-77
2021/03/01 09:25:43;;;;;;;;;;;14.20;82.20;;;;;;5072051;28;19982;-77
2021/03/01 09:28:08;;;;;;;;;;;14.30;82.00;;;;;;5063168;28;19954;-77
2021/03/01 09:30:35;;;;;;;;;;;14.30;81.70;;;;;;5071432;28;19908;-77
2021/03/01 09:33:02;;;;;;;;;;;14.30;80.30;;;;;;5066664;28;19920;-77
2021/03/01 09:35:29;;;;;;;;;;;14.30;79.00;;;;;;5077765;28;19908;-77
2021/03/01 09:37:55;;;;;;;;;;;14.60;79.80;;;;;;5070236;28;19962;-77
2021/03/01 09:40:21;;;;;;;;;;;14.80;77.50;;;;;;5071312;28;19912;-77
2021/03/01 09:42:51;;;;;;;;;;;15.10;78.60;;;;;;5070845;28;19974;-77
2021/03/01 09:45:17;;;;;;;;;;;15.30;77.10;;;;;;5073315;28;19913;-77
2021/03/01 09:47:43;;;;;;;;;;;15.80;75.30;;;;;;5072972;28;19915;-75
2021/03/01 09:50:09;;;;;;;;;;;16.10;73.70;;;;;;5073083;28;19908;-75
2021/03/01 09:52:35;;;;;;;;;;;16.10;70.60;;;;;;5073317;28;19930;-75
2021/03/01 09:55:01;;;;;;;;;;;15.70;72.10;;;;;;5073041;28;20381;-76
2021/03/01 09:57:29;;;;;;;;;;;15.50;73.10;;;;;;5071322;28;19913;-76
2021/03/01 09:59:55;;;;;;;;;;;15.50;73.60;;;;;;5059069;28;19916;-76
2021/03/01 10:02:23;;;;;;;;;;;15.70;73.90;;;;;;5069243;28;19912;-76
2021/03/01 10:04:51;;;;;;;;;;;15.90;72.60;;;;;;5061209;28;20344;-76
2021/03/01 10:07:17;;;;;;;;;;;15.80;69.60;;;;;;5062002;28;19952;-76
2021/03/01 10:09:42;;;;;;;;;;;15.80;70.00;;;;;;5070651;28;20019;-75
2021/03/01 10:12:08;;;;;;;;;;;15.50;68.30;;;;;;5072501;28;20409;-76
2021/03/01 10:14:34;;;;;;;;;;;15.50;71.70;;;;;;5072873;28;19908;-76
2021/03/01 10:17:12;;;;;;;;;;;15.60;71.60;;;;;;5072370;28;20003;-76
2021/03/01 10:19:38;;;;;;;;;;;15.90;69.70;;;;;;5072685;28;20166;-76
2021/03/01 10:22:04;;;;;;;;;;;16.10;68.40;;;;;;5072328;28;20409;-76
2021/03/01 10:24:29;;;;;;;;;;;16.20;68.40;;;;;;5072490;28;19943;-76
2021/03/01 10:27:01;;;;;;;;;;;16.50;69.20;;;;;;5071987;28;19919;-76
2021/03/01 10:29:34;;;;;;;;;;;16.50;65.60;;;;;;5072425;28;19943;-76
2021/03/01 10:32:01;;;;;;;;;;;16.40;67.10;;;;;;5071272;28;19982;-76
2021/03/01 10:34:33;;;;;;;;;;;16.60;66.90;;;;;;5070845;28;19928;-76
2021/03/01 10:36:58;;;;;;;;;;;16.70;64.80;;;;;;5068607;28;19916;-76
2021/03/01 10:39:32;;;;;;;;;;;16.80;66.40;;;;;;5074774;28;19908;-76
2021/03/01 10:41:58;;;;;;;;;;;17.10;65.10;;;;;;5067056;28;19978;-76
2021/03/01 10:44:31;;;;;;;;;;;17.50;65.20;;;;;;5069792;28;19908;-76
2021/03/01 10:46:57;;;;;;;;;;;17.80;64.00;;;;;;5063162;28;19916;-76
2021/03/01 10:49:26;;;;;;;;;;;17.60;63.80;;;;;;5067976;28;19908;-76
2021/03/01 10:51:52;;;;;;;;;;;17.50;59.80;;;;;;5062869;28;19915;-75
2021/03/01 10:54:18;;;;;;;;;;;16.90;59.30;;;;;;5068674;28;19908;-76
2021/03/01 10:56:44;;;;;;;;;;;16.60;59.10;;;;;;5071515;28;19908;-76
2021/03/01 10:59:09;;;;;;;;;;;16.10;61.70;;;;;;5072360;28;19908;-76
2021/03/01 11:01:36;;;;;;;;;;;15.90;61.30;;;;;;5071626;28;19954;-76
2021/03/01 11:04:02;;;;;;;;;;;15.80;61.80;;;;;;5070501;28;20364;-75
2021/03/01 11:06:28;;;;;;;;;;;15.70;59.20;;;;;;5060561;28;19924;-76
2021/03/01 11:08:54;;;;;;;;;;;15.60;59.10;;;;;;5067644;28;20250;-75
2021/03/01 11:11:19;;;;;;;;;;;15.80;61.50;;;;;;5057868;28;19971;-75
2021/03/01 11:13:45;;;;;;;;;;;15.70;58.50;;;;;;5074892;28;20102;-75
2021/03/01 11:16:10;;;;;;;;;;;15.90;60.10;;;;;;5083166;28;20001;-76
2021/03/01 11:18:36;;;;;;;;;;;15.90;58.70;;;;;;5071685;28;19908;-75
2021/03/01 11:21:01;;;;;;;;;;;16.00;58.00;;;;;;5072058;28;19908;-76
2021/03/01 11:23:27;;;;;;;;;;;16.00;57.80;;;;;;5072231;28;20046;-76
2021/03/01 11:25:52;;;;;;;;;;;16.10;60.60;;;;;;5071946;28;19951;-75
2021/03/01 11:28:17;;;;;;;;;;;16.20;61.50;;;;;;5065473;28;20396;-75
2021/03/01 11:30:43;;;;;;;;;;;16.40;59.80;;;;;;5071613;28;20005;-75
2021/03/01 11:33:08;;;;;;;;;;;16.50;59.30;;;;;;5071775;28;20346;-76
2021/03/01 11:35:34;;;;;;;;;;;16.50;58.70;;;;;;5067227;28;19927;-76
2021/03/01 11:38:00;;;;;;;;;;;16.50;59.00;;;;;;5063137;28;19915;-76
2021/03/01 11:40:25;;;;;;;;;;;16.90;60.00;;;;;;5063304;28;19909;-76
2021/03/01 11:42:51;;;;;;;;;;;17.30;58.10;;;;;;5078317;28;19916;-75
2021/03/01 11:45:16;;;;;;;;;;;17.50;56.00;;;;;;5067120;28;19908;-75
2021/03/01 11:47:42;;;;;;;;;;;17.70;56.60;;;;;;5070624;28;19947;-76
2021/03/01 11:50:08;;;;;;;;;;;17.80;55.80;;;;;;5071124;28;19959;-76
2021/03/01 11:52:33;;;;;;;;;;;17.60;56.10;;;;;;5070910;28;19912;-76
2021/03/01 11:54:59;;;;;;;;;;;17.40;55.30;;;;;;5066345;28;20333;-76
2021/03/01 11:57:27;;;;;;;;;;;17.10;55.00;;;;;;5055978;28;19909;-75
2021/03/01 11:59:53;;;;;;;;;;;16.60;55.40;;;;;;5070542;28;20292;-75
2021/03/01 12:02:18;;;;;;;;;;;15.90;55.90;;;;;;5071016;28;19909;-77
2021/03/01 12:04:44;;;;;;;;;;;15.60;56.80;;;;;;5072945;28;19908;-76
2021/03/01 12:07:09;;;;;;;;;;;15.50;56.50;;;;;;5071903;28;19917;-76
2021/03/01 12:09:35;;;;;;;;;;;15.00;56.80;;;;;;5075741;28;19909;-76
2021/03/01 12:12:00;;;;;;;;;;;14.50;58.20;;;;;;5077621;28;19912;-76
2021/03/01 12:14:26;;;;;;;;;;;14.30;57.30;;;;;;5077702;28;19915;-77
2021/03/01 12:16:51;;;;;;;;;;;14.00;58.50;;;;;;5066798;28;19916;-77
2021/03/01 12:19:17;;;;;;;;;;;13.70;59.30;;;;;;5073523;28;19909;-77
2021/03/01 12:21:42;;;;;;;;;;;13.50;59.80;;;;;;5085445;28;20383;-77
2021/03/01 12:24:09;;;;;;;;;;;13.40;59.80;;;;;;5076582;28;19908;-77
2021/03/01 12:26:35;;;;;;;;;;;13.30;59.70;;;;;;5077451;28;19954;-78
2021/03/01 12:29:00;;;;;;;;;;;13.30;61.10;;;;;;5078123;28;19962;-76
2021/03/01 12:31:26;;;;;;;;;;;13.20;60.30;;;;;;5078922;28;19916;-76
2021/03/01 12:33:52;;;;;;;;;;;13.10;61.00;;;;;;5077724;28;19999;-77
2021/03/01 12:36:18;;;;;;;;;;;12.90;59.90;;;;;;5076889;28;19940;-77
2021/03/01 12:38:44;;;;;;;;;;;12.80;60.30;;;;;;5062351;28;19913;-78
2021/03/01 12:41:09;;;;;;;;;;;12.90;60.40;;;;;;5066894;28;19915;-77
2021/03/01 12:43:35;;;;;;;;;;;12.70;59.10;;;;;;5075271;28;20467;-76
2021/03/01 12:46:00;;;;;;;;;;;12.70;59.20;;;;;;5065971;28;20786;-76
2021/03/01 12:48:26;;;;;;;;;;;12.60;59.00;;;;;;5066847;28;19960;-77
2021/03/01 12:50:51;;;;;;;;;;;12.60;60.00;;;;;;5072890;28;19916;-77
2021/03/01 12:53:17;;;;;;;;;;;12.60;59.50;;;;;;5084644;28;19998;-76
2021/03/01 12:55:42;;;;;;;;;;;12.60;59.30;;;;;;5070137;28;19915;-76
2021/03/01 12:58:08;;;;;;;;;;;12.60;59.90;;;;;;5072566;28;20388;-77
2021/03/01 13:00:33;;;;;;;;;;;12.60;60.30;;;;;;5072738;28;19916;-77
2021/03/01 13:02:59;;;;;;;;;;;12.70;60.20;;;;;;5066465;28;19955;-77
2021/03/01 13:05:25;;;;;;;;;;;12.70;60.00;;;;;;5075828;28;19912;-76
2021/03/01 13:07:50;;;;;;;;;;;12.60;59.90;;;;;;5081137;28;20094;-77
2021/03/01 13:10:16;;;;;;;;;;;12.50;60.30;;;;;;5066470;28;20367;-77
2021/03/01 13:12:42;;;;;;;;;;;12.50;60.50;;;;;;5071469;28;19909;-76
2021/03/01 13:15:07;;;;;;;;;;;12.50;60.20;;;;;;5063826;28;20419;-77
2021/03/01 13:17:33;;;;;;;;;;;12.50;60.70;;;;;;5059234;28;20350;-77
2021/03/01 13:19:59;;;;;;;;;;;12.60;61.00;;;;;;5074660;28;19909;-77
2021/03/01 13:22:24;;;;;;;;;;;12.50;60.00;;;;;;5072822;28;19908;-76
2021/03/01 13:24:49;;;;;;;;;;;12.60;61.80;;;;;;5073860;28;20112;-76
2021/03/01 13:27:16;;;;;;;;;;;12.60;62.30;;;;;;5073659;28;19913;-77
2021/03/01 13:29:45;;;;;;;;;;;12.70;63.10;;;;;;5073554;28;19908;-76
2021/03/01 13:32:10;;;;;;;;;;;12.70;62.30;;;;;;5067669;28;19948;-78
2021/03/01 13:34:36;;;;;;;;;;;12.70;64.00;;;;;;5072552;28;20243;-76
2021/03/01 13:37:01;;;;;;;;;;;12.70;64.10;;;;;;5072630;28;19908;-76
2021/03/01 13:39:27;;;;;;;;;;;12.70;64.20;;;;;;5071210;28;20329;-77
2021/03/01 13:41:53;;;;;;;;;;;12.70;63.90;;;;;;5086852;28;19961;-77
2021/03/01 13:44:19;;;;;;;;;;;12.70;64.40;;;;;;5092373;28;19912;-77
2021/03/01 13:46:44;;;;;;;;;;;12.70;64.70;;;;;;5093358;28;19912;-76
2021/03/01 13:49:10;;;;;;;;;;;12.70;64.70;;;;;;5093613;28;19915;-77
2021/03/01 13:51:35;;;;;;;;;;;12.70;66.20;;;;;;5093542;28;20361;-76
2021/03/01 13:54:00;;;;;;;;;;;12.70;64.90;;;;;;5093467;28;19912;-77
2021/03/01 13:56:26;;;;;;;;;;;12.70;65.80;;;;;;5078254;28;19912;-76
2021/03/01 13:58:51;;;;;;;;;;;12.70;65.80;;;;;;5069023;28;20321;-76
2021/03/01 14:01:20;;;;;;;;;;;12.70;66.30;;;;;;5062331;28;20457;-77
2021/03/01 14:03:46;;;;;;;;;;;12.70;66.20;;;;;;5068102;28;19916;-76
2021/03/01 14:06:12;;;;;;;;;;;12.70;65.70;;;;;;5071392;28;19913;-77
2021/03/01 14:08:37;;;;;;;;;;;12.70;66.30;;;;;;5073010;28;19961;-76
2021/03/01 14:11:03;;;;;;;;;;;12.80;66.50;;;;;;5084428;28;19916;-77
2021/03/01 14:13:28;;;;;;;;;;;12.80;66.80;;;;;;5064135;28;19963;-77
2021/03/01 14:15:55;;;;;;;;;;;12.80;66.90;;;;;;5067450;28;19960;-77
2021/03/01 14:18:21;;;;;;;;;;;12.70;66.90;;;;;;5056788;28;19909;-77